Dripping Springs' Hourly Summary for Friday, April 14, 2017
Hour Temp
(f)
RH
(%)
Solar Rad.
(MJ/m2)
Rainfall
(in)
Wind
(mph)
4/14/2017 12:00 AM 65 75 0 0 5.26
4/14/2017 1:00 AM 64 87 0 0 5.01
4/14/2017 2:00 AM 63 99 0 0 4.13
4/14/2017 3:00 AM 63 100 0 0 5.07
4/14/2017 4:00 AM 63 100 0 0 4.28
4/14/2017 5:00 AM 63 100 0 0 3.7
4/14/2017 6:00 AM 63 100 0 0 3.36
4/14/2017 7:00 AM 61 100 0 0 3.28
4/14/2017 8:00 AM 62 100 0.04 0 3.43
4/14/2017 9:00 AM 63 100 0.33 0 4.11
4/14/2017 10:00 AM 66 99 1.09 0 5.17
4/14/2017 11:00 AM 68 83 1.65 0 6.26
4/14/2017 12:00 PM 71 68 2.75 0 6.7
4/14/2017 1:00 PM 73 58 2.7 0 6.99
4/14/2017 2:00 PM 74 54 1.49 0 6.34
4/14/2017 3:00 PM 75 50 2.76 0 6.61
4/14/2017 4:00 PM 76 50 2.67 0 6.48
4/14/2017 5:00 PM 77 50 1.65 0 6.59
4/14/2017 6:00 PM 77 50 1.33 0 6.31
4/14/2017 7:00 PM 76 51 0.71 0 5.68
4/14/2017 8:00 PM 74 53 0.14 0 4.11
4/14/2017 9:00 PM 70 62 0 0 3.13
4/14/2017 10:00 PM 69 69 0 0 3.6
4/14/2017 11:00 PM 69 74 0 0 5.74
Data Summary 68 76 19.31 0.00 5.06